Portada
METAR-TAF:

METAR-TAF

Aeropuertos :

Aeropuerto Internacional de Jartum

Jartum, Sudán

latitud: 15-36N, longitud: 032-33E, altitud: 382 m

Observación

El informe se hizo hace 30 minutos, a las 07:00 UTC
Viento 12 kt del norte-noreste
Temperatura 21°C
Humedad 16%
Presión 1016 hPa
Visibilidad 10 km o más
sin nubes por debajo de 1500 m y sin presencia de cumulonimbus.

METAR: HSSS 210700Z 02012KT CAVOK 21/M06 Q1016 NOSIG

Hora: 09:30 (07:30 UTC)

Pronóstico

El informe se hizo hace 2 horas y 30 minutos, a las 05:00 UTC
Pronóstico válido del 21 a las 06 UTC al 22 a las 12 UTC
Viento 8 kt del norte con ráfagas de 18 kt
Visibilidad 10 km o más
sin nubes por debajo de 1500 m y sin presencia de cumulonimbus.

TAF: HSSS 210500Z 2106/2212 36008G18KT CAVOK

Observaciones y pronósticos meteorológicos de más de 4000 aeropuertos (mensajes METAR y TAF).

Los puntos amarillos y rojos representan las estaciones disponibles.

Ponga el ratón en el punto deseado para ver el nombre de la estación.

Haga clic para ver las observaciones y los pronósticos meteorológicos.

Para cambiar el mapa : haga clic en los botones verdes con una cruz de color negro para hacer un zoom, en el botón verde con un guión para alejar o en las flechas verdes para mapas adyacentes.


METAR-TAF: